KBYH/BYH METAR and TAF weather

Enter ICAO airport designator
Station Type Date Time Source
KBYH METAR 2022/01/25 21:50 UTC NOAA

KBYH 252150Z 36011G23KT 10SM SKC 01/M08 A3029 RMK LAST


Station Type Date Time Source
KBYH Decoded METAR 2022/01/25 21:50 UTC NOAA

Eaker Air Force Base, AR, United States (KBYH) 35-58N 089-57W
Jan 25, 2022 - 04:50 PM EST / 2022.01.25 2150 UTC
Wind: from the N (360 degrees) at 13 MPH (11 KT) gusting to 26 MPH (23 KT):0
Visibility: 10 mile(s):0
Sky conditions: clear
Temperature: 33 F (1 C)
Windchill: 23 F (-5 C):1
Dew Point: 17 F (-8 C)
Relative Humidity: 50%
Pressure (altimeter): 30.29 in. Hg (1025 hPa)
ob: KBYH 252150Z 36011G23KT 10SM SKC 01/M08 A3029 RMK LAST
cycle: 22

Station Type Date Time Source
KBYH TAF UTC NOAA

Error!

Example: see airport list